createdAt,value
2022-10-11T04:30:38.187Z,2.70
2022-10-11T04:33:06.321Z,2.65
2022-10-11T04:52:25.905Z,2.99
2022-10-11T04:54:54.619Z,2.82
2022-10-11T04:57:24.229Z,2.74
2022-10-11T04:59:52.349Z,2.70
2022-10-11T05:16:18.325Z,3.28
2022-10-11T07:02:36.667Z,6.14
2022-10-11T07:38:47.875Z,8.09
2022-10-11T07:41:16.738Z,8.15
2022-10-11T07:43:46.778Z,8.24
2022-10-11T07:46:16.519Z,8.31
2022-10-11T07:48:44.554Z,8.41
2022-10-11T07:51:20.915Z,8.51
2022-10-11T07:53:54.401Z,8.71
2022-10-11T07:56:27.525Z,8.78
2022-10-11T07:59:00.314Z,8.91
2022-10-11T08:01:32.559Z,9.00
2022-10-11T08:04:28.040Z,9.21
2022-10-11T08:07:21.044Z,9.37
2022-10-11T08:09:50.411Z,9.46
2022-10-11T08:12:33.017Z,9.57
2022-10-11T08:15:02.978Z,9.73
2022-10-11T08:18:24.189Z,9.82
2022-10-11T08:21:00.174Z,9.97
2022-10-11T08:23:28.553Z,10.12
2022-10-11T08:25:58.298Z,10.25
2022-10-11T08:28:26.582Z,10.36
2022-10-11T08:31:11.235Z,10.48
2022-10-11T08:47:44.772Z,11.76
2022-10-11T08:50:22.698Z,11.85
2022-10-11T08:53:08.300Z,12.02
2022-10-11T08:55:59.506Z,12.12
2022-10-11T08:59:15.785Z,12.24
2022-10-11T09:01:59.209Z,12.36
2022-10-11T09:04:27.914Z,12.49
2022-10-11T09:07:46.417Z,12.57
2022-10-11T09:10:48.836Z,12.70
2022-10-11T09:17:41.418Z,12.95
2022-10-11T09:20:38.276Z,13.07
2022-10-11T09:23:38.047Z,13.16
2022-10-11T09:26:30.922Z,13.24
2022-10-11T09:29:58.330Z,13.36
2022-10-11T09:32:36.158Z,13.50
2022-10-11T09:35:33.259Z,13.61
2022-10-11T09:39:07.887Z,13.75
2022-10-11T09:41:48.456Z,13.90
2022-10-11T09:44:47.264Z,13.96
2022-10-11T09:47:28.287Z,14.00
2022-10-11T09:50:04.516Z,14.03
2022-10-11T09:52:33.914Z,14.11
2022-10-11T09:55:03.104Z,14.19
2022-10-11T09:57:56.029Z,14.26
2022-10-11T10:00:57.399Z,14.35
2022-10-11T10:03:32.558Z,14.44
2022-10-11T10:06:17.615Z,14.51
2022-10-11T10:08:47.805Z,14.61
2022-10-11T10:11:18.353Z,14.67
2022-10-11T10:13:56.498Z,14.76
2022-10-11T10:16:32.105Z,14.84
2022-10-11T10:19:17.661Z,14.96
2022-10-11T10:21:53.264Z,15.04
2022-10-11T10:24:38.760Z,15.18
2022-10-11T10:27:26.900Z,15.30
2022-10-11T10:30:13.838Z,15.32
2022-10-11T10:33:09.241Z,15.37
2022-10-11T10:36:06.275Z,15.42
2022-10-11T10:38:52.380Z,15.47
2022-10-11T10:41:21.993Z,15.53
2022-10-11T10:43:59.459Z,15.55
2022-10-11T10:47:16.167Z,15.64
2022-10-11T10:50:07.420Z,15.86
2022-10-11T10:53:20.645Z,15.96
2022-10-11T10:55:59.591Z,16.05
2022-10-11T10:58:40.315Z,16.12
2022-10-11T11:01:32.352Z,16.22
2022-10-11T11:04:32.419Z,16.29
2022-10-11T11:07:43.991Z,16.33
2022-10-11T11:11:14.169Z,16.44
2022-10-11T11:14:36.463Z,16.53
2022-10-11T11:17:23.708Z,16.68
2022-10-11T11:20:43.908Z,16.85
2022-10-11T11:23:46.180Z,16.91
2022-10-11T11:26:44.411Z,16.96
2022-10-11T11:29:55.767Z,17.05
2022-10-11T11:33:12.360Z,17.12
2022-10-11T11:35:53.690Z,17.13
2022-10-11T11:38:51.665Z,17.12
2022-10-11T11:41:28.597Z,17.20
2022-10-11T11:44:05.967Z,17.20
2022-10-11T11:46:42.814Z,17.24
2022-10-11T11:49:23.534Z,17.28
2022-10-11T11:51:53.183Z,17.34
2022-10-11T11:54:44.660Z,17.31
2022-10-11T11:57:36.278Z,17.29
2022-10-11T12:00:13.948Z,17.31
2022-10-11T12:03:09.954Z,17.35
2022-10-11T12:05:39.284Z,17.40
2022-10-11T12:08:32.536Z,17.45
2022-10-11T12:11:02.608Z,17.53
2022-10-11T12:13:40.956Z,17.50
2022-10-11T12:16:16.132Z,17.48
2022-10-11T12:18:52.361Z,17.56
2022-10-11T12:21:35.103Z,17.64
2022-10-11T12:25:18.268Z,17.60
2022-10-11T12:28:00.285Z,17.69
2022-10-11T12:30:47.256Z,17.74
2022-10-11T12:34:08.639Z,17.82
2022-10-11T12:36:42.127Z,17.86
2022-10-11T12:39:19.837Z,17.91
2022-10-11T12:41:49.005Z,17.93
2022-10-11T12:44:29.000Z,17.90
2022-10-11T12:47:00.126Z,17.82
2022-10-11T12:49:43.750Z,17.79
2022-10-11T12:52:18.179Z,17.70
2022-10-11T12:55:32.549Z,17.68
2022-10-11T12:58:49.137Z,17.59
2022-10-11T13:01:25.055Z,17.55
2022-10-11T13:04:12.492Z,17.48
2022-10-11T13:07:06.806Z,17.37
2022-10-11T13:09:45.316Z,17.33
2022-10-11T13:12:27.475Z,17.36
2022-10-11T13:15:08.135Z,17.46
2022-10-11T13:18:15.802Z,17.53
2022-10-11T13:21:41.469Z,17.53
2022-10-11T13:25:09.813Z,17.76
2022-10-11T16:35:21.116Z,12.77
2022-10-11T16:37:48.401Z,12.69
2022-10-11T16:40:17.224Z,12.63
2022-10-11T16:42:46.206Z,12.56
2022-10-11T16:45:15.979Z,12.50
2022-10-11T16:47:43.953Z,12.44
2022-10-11T16:50:12.077Z,12.43
2022-10-11T16:52:39.234Z,12.39
2022-10-11T16:55:07.108Z,12.33
2022-10-11T16:57:37.272Z,12.32
2022-10-11T17:00:08.168Z,12.32
2022-10-11T17:02:42.759Z,12.23
2022-10-11T17:05:29.725Z,12.14
2022-10-11T17:07:58.317Z,12.04
2022-10-11T17:10:38.653Z,11.91
2022-10-11T17:13:07.014Z,11.86
2022-10-11T17:15:36.478Z,11.82
2022-10-11T17:18:07.056Z,11.83
2022-10-11T17:20:46.111Z,11.79
2022-10-11T17:23:13.338Z,11.80
2022-10-11T17:25:47.861Z,11.76
2022-10-11T17:28:17.878Z,11.74
2022-10-11T17:30:57.380Z,11.70
2022-10-11T17:33:26.285Z,11.65
2022-10-11T17:35:57.815Z,11.60
2022-10-11T17:38:27.101Z,11.51
2022-10-11T17:41:05.797Z,11.49
2022-10-11T17:43:36.729Z,11.42
2022-10-11T17:46:06.771Z,11.40
2022-10-11T17:48:38.864Z,11.40
2022-10-11T17:51:10.214Z,11.35
2022-10-11T17:53:39.859Z,11.31
2022-10-11T17:56:15.621Z,11.24
2022-10-11T17:58:43.711Z,11.15
2022-10-11T18:01:15.848Z,11.07
2022-10-11T18:03:49.700Z,11.03
2022-10-11T18:06:17.211Z,10.99
2022-10-11T18:08:44.799Z,10.94
2022-10-11T18:11:19.085Z,10.91
2022-10-11T18:13:55.506Z,10.90
2022-10-11T18:16:27.546Z,10.86
2022-10-11T18:19:05.428Z,10.81
2022-10-11T18:21:35.154Z,10.76
2022-10-11T18:24:07.339Z,10.71
2022-10-11T18:26:42.514Z,10.70
2022-10-11T18:29:11.928Z,10.66
2022-10-11T18:31:40.529Z,10.68
2022-10-11T18:34:10.232Z,10.75
2022-10-11T18:36:38.346Z,10.76
2022-10-11T18:39:21.333Z,10.71
2022-10-11T18:41:52.753Z,10.67
2022-10-11T18:44:19.942Z,10.68
2022-10-11T18:46:47.919Z,10.67
2022-10-11T18:49:15.240Z,10.70
2022-10-11T18:51:44.769Z,10.70
2022-10-11T18:54:16.719Z,10.69
2022-10-11T18:56:47.604Z,10.64
2022-10-11T18:59:17.687Z,10.66
2022-10-11T19:01:47.482Z,10.67
2022-10-11T19:04:15.482Z,10.65
2022-10-11T19:06:54.009Z,10.67
2022-10-11T19:09:47.791Z,10.67
2022-10-11T19:12:48.524Z,10.66
2022-10-11T19:15:16.278Z,10.64
2022-10-11T19:17:45.870Z,10.60
2022-10-11T19:20:14.285Z,10.58
2022-10-11T19:22:41.474Z,10.56
2022-10-11T19:25:18.967Z,10.53
2022-10-11T19:27:59.010Z,10.47
2022-10-11T19:30:26.629Z,10.43
2022-10-11T19:32:55.226Z,10.47
2022-10-11T19:35:22.501Z,10.48
2022-10-11T19:37:49.847Z,10.42
2022-10-11T19:40:17.104Z,10.41
2022-10-11T19:42:44.383Z,10.37
2022-10-11T19:45:11.684Z,10.35
2022-10-11T19:47:38.871Z,10.35
2022-10-11T19:50:07.055Z,10.33
2022-10-11T19:52:34.596Z,10.32
2022-10-11T19:55:02.091Z,10.32
2022-10-11T19:57:29.721Z,10.31
2022-10-11T20:00:00.133Z,10.31
2022-10-11T20:02:27.386Z,10.29
2022-10-11T20:04:54.696Z,10.32
2022-10-11T20:07:22.032Z,10.32
2022-10-11T20:09:49.222Z,10.36
2022-10-11T20:12:16.490Z,10.41
2022-10-11T20:14:49.933Z,10.42
2022-10-11T20:17:42.802Z,10.41
2022-10-11T20:20:10.393Z,10.39
2022-10-11T20:22:37.497Z,10.41
2022-10-11T20:25:11.876Z,10.38
2022-10-11T20:27:47.866Z,10.35
2022-10-11T20:30:15.387Z,10.37
2022-10-11T20:32:42.607Z,10.40
2022-10-11T20:35:09.954Z,10.43
2022-10-11T20:37:38.254Z,10.44
2022-10-11T20:40:07.764Z,10.43
2022-10-11T20:42:40.638Z,10.43
2022-10-11T20:45:08.269Z,10.43
2022-10-11T20:47:35.807Z,10.42
2022-10-11T20:50:03.821Z,10.40
2022-10-11T20:52:36.421Z,10.38
2022-10-11T20:55:03.782Z,10.30
2022-10-11T20:57:31.489Z,10.28
2022-10-11T21:00:04.570Z,10.28
2022-10-11T21:02:35.047Z,10.34
2022-10-11T21:05:07.753Z,10.33
2022-10-11T21:07:35.392Z,10.34
2022-10-11T21:10:08.801Z,10.34
2022-10-11T21:12:37.556Z,10.33
2022-10-11T21:15:05.561Z,10.32
2022-10-11T21:17:32.694Z,10.30
2022-10-11T21:20:05.535Z,10.29
2022-10-11T21:22:33.337Z,10.26
2022-10-11T21:25:00.884Z,10.24
2022-10-11T21:27:30.554Z,10.24
2022-10-11T21:29:59.185Z,10.23
2022-10-11T21:32:26.868Z,10.21
2022-10-11T21:34:54.024Z,10.19
2022-10-11T21:37:21.157Z,10.18
2022-10-11T21:39:48.400Z,10.15
2022-10-11T21:42:15.451Z,10.01
2022-10-11T21:44:43.208Z,9.99
2022-10-11T21:47:10.435Z,10.02
2022-10-11T21:49:40.490Z,9.95
2022-10-11T21:52:14.786Z,9.97
2022-10-11T21:54:42.145Z,9.94
2022-10-11T21:57:09.397Z,9.93
2022-10-11T21:59:36.583Z,9.86
2022-10-11T22:02:03.915Z,9.82
2022-10-11T22:04:31.099Z,9.86
2022-10-11T22:06:58.488Z,9.82
2022-10-11T22:09:27.896Z,9.82
2022-10-11T22:11:56.235Z,9.76
2022-10-11T22:14:24.401Z,9.72
2022-10-11T22:19:52.970Z,9.77
2022-10-11T22:22:21.754Z,9.82
2022-10-11T22:24:50.326Z,9.83
2022-10-11T22:27:18.971Z,9.86
2022-10-11T22:29:47.327Z,9.93
2022-10-11T22:32:15.778Z,10.00
2022-10-11T22:34:44.511Z,10.00
2022-10-11T22:37:13.000Z,9.98
2022-10-11T22:39:41.533Z,9.97
2022-10-11T22:42:10.113Z,9.96
2022-10-11T22:44:38.890Z,9.96
2022-10-11T22:47:07.317Z,9.95
2022-10-11T22:49:35.810Z,9.96
2022-10-11T22:52:04.418Z,9.95
2022-10-11T22:54:32.870Z,9.97
2022-10-11T22:57:01.362Z,9.96
2022-10-11T22:59:29.869Z,9.95
2022-10-11T23:01:58.664Z,9.96
2022-10-11T23:04:28.178Z,9.93
2022-10-11T23:06:57.281Z,9.89
2022-10-11T23:09:29.168Z,9.87
2022-10-11T23:11:58.275Z,9.86
2022-10-11T23:14:26.947Z,9.88
2022-10-11T23:16:55.553Z,9.86
2022-10-11T23:19:24.019Z,9.84
2022-10-11T23:21:52.453Z,9.82
2022-10-11T23:24:20.990Z,9.73
2022-10-11T23:26:49.440Z,9.63
2022-10-11T23:29:17.980Z,9.63
2022-10-11T23:31:48.442Z,9.63
2022-10-11T23:34:17.023Z,9.60
2022-10-11T23:36:45.586Z,9.56
2022-10-11T23:39:16.106Z,9.53
2022-10-11T23:41:44.625Z,9.50
2022-10-11T23:44:13.102Z,9.43
2022-10-11T23:46:41.846Z,9.37
2022-10-11T23:49:10.495Z,9.34
2022-10-11T23:51:39.478Z,9.32
2022-10-11T23:54:08.048Z,9.32
2022-10-11T23:56:36.577Z,9.34
2022-10-11T23:59:05.235Z,9.33
